Time;durP1;ratioP1;P1;durP2;ratioP2;P2;SDS_P1;SDS_P2;PMS_P1;PMS_P2;Temp;Humidity;BMP_temperature;BMP_pressure;BME280_temperature;BME280_humidity;BME280_pressure;Samples;Min_cycle;Max_cycle;Signal;HPM_P1;HPM_P2
2024/03/15 00:01:23;;;;;;;;;;;5.30;99.90;;;;;;6274225;22;20228;-80
2024/03/15 00:03:50;;;;;;;;;;;5.30;99.90;;;;;;6273751;22;19919;-79
2024/03/15 00:06:18;;;;;;;;;;;5.30;99.90;;;;;;6273976;22;19946;-79
2024/03/15 00:08:46;;;;;;;;;;;5.30;99.90;;;;;;6273576;22;19919;-79
2024/03/15 00:11:16;;;;;;;;;;;5.30;99.90;;;;;;6274012;22;19962;-79
2024/03/15 00:13:44;;;;;;;;;;;5.30;99.90;;;;;;6273914;22;20488;-79
2024/03/15 00:16:12;;;;;;;;;;;5.30;99.90;;;;;;6274874;22;19941;-80
2024/03/15 00:18:39;;;;;;;;;;;5.30;99.90;;;;;;6274178;22;19976;-79
2024/03/15 00:21:06;;;;;;;;;;;5.30;99.90;;;;;;6274883;22;20244;-79
2024/03/15 00:23:33;;;;;;;;;;;5.30;99.90;;;;;;6273479;22;19934;-79
2024/03/15 00:26:00;;;;;;;;;;;5.20;99.90;;;;;;6274483;22;19973;-79
2024/03/15 00:28:27;;;;;;;;;;;5.20;99.90;;;;;;6273832;22;19926;-79
2024/03/15 00:30:54;;;;;;;;;;;5.20;99.90;;;;;;6273249;22;19920;-80
2024/03/15 00:33:21;;;;;;;;;;;5.20;99.90;;;;;;6274108;22;19919;-79
2024/03/15 00:35:49;;;;;;;;;;;5.10;99.90;;;;;;6273789;22;19930;-80
2024/03/15 00:38:16;;;;;;;;;;;5.10;99.90;;;;;;6274680;22;19927;-80
2024/03/15 00:40:45;;;;;;;;;;;5.10;99.90;;;;;;6274914;22;19927;-79
2024/03/15 00:43:16;;;;;;;;;;;5.00;99.90;;;;;;6273331;22;19919;-80
2024/03/15 00:45:44;;;;;;;;;;;5.00;99.90;;;;;;6274269;22;20296;-78
2024/03/15 00:48:11;;;;;;;;;;;4.90;99.90;;;;;;6273683;22;19993;-80
2024/03/15 00:50:41;;;;;;;;;;;4.90;99.90;;;;;;6274052;22;19947;-78
2024/03/15 00:53:08;;;;;;;;;;;4.90;99.90;;;;;;6273591;22;20331;-80
2024/03/15 00:55:37;;;;;;;;;;;4.90;99.90;;;;;;6273318;22;19923;-80
2024/03/15 00:58:06;;;;;;;;;;;4.90;99.90;;;;;;6274551;22;20312;-79
2024/03/15 01:00:36;;;;;;;;;;;4.90;99.90;;;;;;6274422;22;19954;-78
2024/03/15 01:03:03;;;;;;;;;;;4.80;99.90;;;;;;6273399;22;19938;-79
2024/03/15 01:05:30;;;;;;;;;;;4.80;99.90;;;;;;6274536;22;19919;-79
2024/03/15 01:07:59;;;;;;;;;;;4.80;99.90;;;;;;6273437;22;20231;-80
2024/03/15 01:10:26;;;;;;;;;;;4.80;99.90;;;;;;6273356;22;19990;-79
2024/03/15 01:12:53;;;;;;;;;;;4.80;99.90;;;;;;6273482;22;20324;-79
2024/03/15 01:15:20;;;;;;;;;;;4.70;99.90;;;;;;6275147;22;19920;-80
2024/03/15 01:17:47;;;;;;;;;;;4.70;99.90;;;;;;6276796;22;19977;-79
2024/03/15 01:20:14;;;;;;;;;;;4.70;99.90;;;;;;6275515;22;19942;-79
2024/03/15 01:22:41;;;;;;;;;;;4.70;99.90;;;;;;6276935;22;19919;-80
2024/03/15 01:25:08;;;;;;;;;;;4.70;99.90;;;;;;6275400;22;19930;-80
2024/03/15 01:27:35;;;;;;;;;;;4.60;99.90;;;;;;6274928;22;19929;-79
2024/03/15 01:30:02;;;;;;;;;;;4.60;99.90;;;;;;6276552;22;19919;-80
2024/03/15 01:32:29;;;;;;;;;;;4.60;99.90;;;;;;6275581;22;19926;-80
2024/03/15 01:34:57;;;;;;;;;;;4.60;99.90;;;;;;6275137;22;20262;-80
2024/03/15 01:37:24;;;;;;;;;;;4.50;99.90;;;;;;6275408;22;19930;-79
2024/03/15 01:39:53;;;;;;;;;;;4.50;99.90;;;;;;6276392;22;19941;-79
2024/03/15 01:42:20;;;;;;;;;;;4.50;99.90;;;;;;6275476;22;19933;-79
2024/03/15 01:44:53;;;;;;;;;;;4.40;99.90;;;;;;6275107;22;19923;-80
2024/03/15 01:47:21;;;;;;;;;;;4.40;99.90;;;;;;6275619;22;19996;-79
2024/03/15 01:49:48;;;;;;;;;;;4.40;99.90;;;;;;6275334;22;19988;-79
2024/03/15 01:52:15;;;;;;;;;;;4.30;99.90;;;;;;6275014;22;20327;-80
2024/03/15 01:54:44;;;;;;;;;;;4.30;99.90;;;;;;6275771;22;19923;-79
2024/03/15 01:57:14;;;;;;;;;;;4.30;99.90;;;;;;6275445;22;19919;-79
2024/03/15 01:59:44;;;;;;;;;;;4.20;99.90;;;;;;6275530;22;20041;-80
2024/03/15 02:02:13;;;;;;;;;;;4.20;99.90;;;;;;6274847;22;19927;-79
2024/03/15 02:04:53;;;;;;;;;;;4.20;99.90;;;;;;6274964;22;19923;-79
2024/03/15 02:07:27;;;;;;;;;;;4.20;99.90;;;;;;6276455;22;19943;-80
2024/03/15 02:09:57;;;;;;;;;;;4.20;99.90;;;;;;6276417;22;19924;-78
2024/03/15 02:12:25;;;;;;;;;;;4.20;99.90;;;;;;6276218;22;19923;-79
2024/03/15 02:14:52;;;;;;;;;;;4.10;99.90;;;;;;6276306;22;19923;-79
2024/03/15 02:17:22;;;;;;;;;;;4.10;99.90;;;;;;6274588;22;20304;-80
2024/03/15 02:19:49;;;;;;;;;;;4.10;99.90;;;;;;6276376;22;19919;-80
2024/03/15 02:22:16;;;;;;;;;;;4.10;99.90;;;;;;6275033;22;20275;-79
2024/03/15 02:24:43;;;;;;;;;;;4.10;99.90;;;;;;6274999;22;19980;-78
2024/03/15 02:27:13;;;;;;;;;;;4.10;99.90;;;;;;6274394;22;19923;-79
2024/03/15 02:29:41;;;;;;;;;;;4.10;99.90;;;;;;6275691;22;20304;-80
2024/03/15 02:32:08;;;;;;;;;;;4.10;99.90;;;;;;6275396;22;19934;-79
2024/03/15 02:34:34;;;;;;;;;;;4.10;99.90;;;;;;6276069;22;19935;-79
2024/03/15 02:37:02;;;;;;;;;;;4.00;99.90;;;;;;6275075;22;19958;-80
2024/03/15 02:39:29;;;;;;;;;;;3.90;99.90;;;;;;6274803;22;19931;-79
2024/03/15 02:41:56;;;;;;;;;;;4.00;99.90;;;;;;6274893;22;20272;-79
2024/03/15 02:44:23;;;;;;;;;;;4.00;99.90;;;;;;6274779;22;19930;-80
2024/03/15 02:46:50;;;;;;;;;;;3.90;99.90;;;;;;6275066;22;20245;-81
2024/03/15 02:49:21;;;;;;;;;;;3.90;99.90;;;;;;6276172;22;19923;-79
2024/03/15 02:51:47;;;;;;;;;;;3.90;99.90;;;;;;6275635;22;19974;-79
2024/03/15 02:54:14;;;;;;;;;;;3.90;99.90;;;;;;6275543;22;19923;-78
2024/03/15 02:56:41;;;;;;;;;;;3.90;99.90;;;;;;6274584;22;20013;-79
2024/03/15 02:59:08;;;;;;;;;;;3.90;99.90;;;;;;6274736;22;19919;-80
2024/03/15 03:01:35;;;;;;;;;;;3.90;99.90;;;;;;6274097;22;20297;-78
2024/03/15 03:04:05;;;;;;;;;;;3.90;99.90;;;;;;6274785;22;19919;-80
2024/03/15 03:06:36;;;;;;;;;;;3.90;99.90;;;;;;6275544;22;19925;-80
2024/03/15 03:09:06;;;;;;;;;;;3.90;99.90;;;;;;6275692;22;19920;-78
2024/03/15 03:11:33;;;;;;;;;;;3.80;99.90;;;;;;6274468;22;19919;-80
2024/03/15 03:14:00;;;;;;;;;;;3.90;99.90;;;;;;6275537;22;20240;-80
2024/03/15 03:16:27;;;;;;;;;;;3.90;99.90;;;;;;6274524;22;19942;-80
2024/03/15 03:18:54;;;;;;;;;;;3.90;99.90;;;;;;6274153;22;19945;-79
2024/03/15 03:21:21;;;;;;;;;;;4.00;99.90;;;;;;6274864;22;19932;-80
2024/03/15 03:23:57;;;;;;;;;;;4.00;99.90;;;;;;6274161;22;19920;-79
2024/03/15 03:26:24;;;;;;;;;;;4.10;99.90;;;;;;6273797;22;19927;-80
2024/03/15 03:28:51;;;;;;;;;;;4.10;99.90;;;;;;6275901;22;19927;-80
2024/03/15 03:31:19;;;;;;;;;;;4.20;99.90;;;;;;6274824;22;19923;-79
2024/03/15 03:33:45;;;;;;;;;;;4.20;99.90;;;;;;6275440;22;19919;-80
2024/03/15 03:36:12;;;;;;;;;;;4.30;99.90;;;;;;6274723;22;19922;-80
2024/03/15 03:38:39;;;;;;;;;;;4.30;99.90;;;;;;6273770;22;20235;-78
2024/03/15 03:41:06;;;;;;;;;;;4.40;99.90;;;;;;6275432;22;19946;-80
2024/03/15 03:43:34;;;;;;;;;;;4.40;99.90;;;;;;6274207;22;19930;-79
2024/03/15 03:46:01;;;;;;;;;;;4.50;99.90;;;;;;6273643;22;19923;-80
2024/03/15 03:48:31;;;;;;;;;;;4.50;99.90;;;;;;6275018;22;19919;-80
2024/03/15 03:51:00;;;;;;;;;;;4.60;99.90;;;;;;6274932;22;19930;-80
2024/03/15 03:53:27;;;;;;;;;;;4.60;99.90;;;;;;6275082;22;19919;-79
2024/03/15 03:55:54;;;;;;;;;;;4.70;99.90;;;;;;6274046;22;19931;-79
2024/03/15 03:58:23;;;;;;;;;;;4.70;99.90;;;;;;6274020;22;19949;-78
2024/03/15 04:00:50;;;;;;;;;;;4.80;99.90;;;;;;6273303;22;19919;-79
2024/03/15 04:03:17;;;;;;;;;;;4.90;99.90;;;;;;6274234;22;19930;-79
2024/03/15 04:05:47;;;;;;;;;;;4.90;99.90;;;;;;6274986;22;20362;-79
2024/03/15 04:08:15;;;;;;;;;;;5.00;99.90;;;;;;6273903;22;19946;-79
2024/03/15 04:10:45;;;;;;;;;;;5.00;99.90;;;;;;6273624;22;19919;-79
2024/03/15 04:13:14;;;;;;;;;;;5.10;99.90;;;;;;6273769;22;19920;-79
2024/03/15 04:15:46;;;;;;;;;;;5.10;99.90;;;;;;6274785;22;19926;-80
2024/03/15 04:18:13;;;;;;;;;;;5.10;99.90;;;;;;6274725;22;20331;-80
2024/03/15 04:20:40;;;;;;;;;;;5.10;99.90;;;;;;6274240;22;19921;-79
2024/03/15 04:23:07;;;;;;;;;;;5.20;99.90;;;;;;6273592;22;19934;-80
2024/03/15 04:25:34;;;;;;;;;;;5.20;99.90;;;;;;6273287;22;19931;-80
2024/03/15 04:28:01;;;;;;;;;;;5.20;99.90;;;;;;6273469;22;19930;-79
2024/03/15 04:30:28;;;;;;;;;;;5.30;99.90;;;;;;6274906;22;19962;-79
2024/03/15 04:32:55;;;;;;;;;;;5.30;99.90;;;;;;6274877;22;20340;-79
2024/03/15 04:35:23;;;;;;;;;;;5.30;99.90;;;;;;6273985;22;19919;-79
2024/03/15 04:37:50;;;;;;;;;;;5.30;99.90;;;;;;6273878;22;19919;-78
2024/03/15 04:40:17;;;;;;;;;;;5.30;99.90;;;;;;6273879;22;19923;-80
2024/03/15 04:42:46;;;;;;;;;;;5.30;99.90;;;;;;6273639;22;19919;-80
2024/03/15 04:45:15;;;;;;;;;;;5.30;99.90;;;;;;6274570;22;20006;-80
2024/03/15 04:47:43;;;;;;;;;;;5.30;99.90;;;;;;6273772;22;19919;-80
2024/03/15 04:50:10;;;;;;;;;;;5.30;99.90;;;;;;6274335;22;20275;-80
2024/03/15 04:52:39;;;;;;;;;;;5.30;99.90;;;;;;6273499;22;19961;-80
2024/03/15 04:55:08;;;;;;;;;;;5.40;99.90;;;;;;6273556;22;19923;-80
2024/03/15 04:57:38;;;;;;;;;;;5.40;99.90;;;;;;6273474;22;19985;-79
2024/03/15 05:00:17;;;;;;;;;;;5.40;99.90;;;;;;6274282;22;19981;-79
2024/03/15 05:02:47;;;;;;;;;;;5.40;99.90;;;;;;6274415;22;19927;-79
2024/03/15 05:05:15;;;;;;;;;;;5.40;99.90;;;;;;6275274;22;20271;-79
2024/03/15 05:07:44;;;;;;;;;;;5.50;99.90;;;;;;6275695;22;19931;-79
2024/03/15 05:10:13;;;;;;;;;;;5.50;99.90;;;;;;6273936;22;20356;-79
2024/03/15 05:12:43;;;;;;;;;;;5.50;99.90;;;;;;6274086;22;19927;-80
2024/03/15 05:15:11;;;;;;;;;;;5.60;99.90;;;;;;6274571;22;20299;-78
2024/03/15 05:17:39;;;;;;;;;;;5.60;99.90;;;;;;6273718;22;19923;-80
2024/03/15 05:20:12;;;;;;;;;;;5.60;99.90;;;;;;6273934;22;19993;-80
2024/03/15 05:22:43;;;;;;;;;;;5.70;99.90;;;;;;6275453;22;19923;-80
2024/03/15 05:25:14;;;;;;;;;;;5.70;99.90;;;;;;6275118;22;19919;-80
2024/03/15 05:27:41;;;;;;;;;;;5.70;99.90;;;;;;6274062;22;20271;-80
2024/03/15 05:30:08;;;;;;;;;;;5.70;99.90;;;;;;6273589;22;19919;-80
2024/03/15 05:32:35;;;;;;;;;;;5.70;99.90;;;;;;6273508;22;19942;-78
2024/03/15 05:35:02;;;;;;;;;;;5.80;99.90;;;;;;6274073;22;19927;-77
2024/03/15 05:37:31;;;;;;;;;;;5.80;99.90;;;;;;6275684;22;19919;-78
2024/03/15 05:39:58;;;;;;;;;;;5.80;99.90;;;;;;6274365;22;19959;-78
2024/03/15 05:42:31;;;;;;;;;;;5.80;99.90;;;;;;6274548;22;19920;-79
2024/03/15 05:44:58;;;;;;;;;;;5.80;99.90;;;;;;6275651;22;20006;-78
2024/03/15 05:47:25;;;;;;;;;;;5.90;99.90;;;;;;6274672;22;20244;-78
2024/03/15 05:49:57;;;;;;;;;;;5.90;99.90;;;;;;6273064;22;20003;-78
2024/03/15 05:52:24;;;;;;;;;;;5.90;99.90;;;;;;6273530;22;19930;-79
2024/03/15 05:54:51;;;;;;;;;;;5.90;99.90;;;;;;6273404;22;19920;-79
2024/03/15 05:57:18;;;;;;;;;;;5.90;99.90;;;;;;6274359;22;19927;-79
2024/03/15 05:59:45;;;;;;;;;;;5.90;99.90;;;;;;6273120;22;19946;-78
2024/03/15 06:02:14;;;;;;;;;;;5.90;99.90;;;;;;6273958;22;19930;-79
2024/03/15 06:04:42;;;;;;;;;;;5.90;99.90;;;;;;6274665;22;19930;-79
2024/03/15 06:07:09;;;;;;;;;;;6.00;99.90;;;;;;6276447;22;19923;-79
2024/03/15 06:09:38;;;;;;;;;;;6.10;99.90;;;;;;6276418;22;19927;-79
2024/03/15 06:12:05;;;;;;;;;;;6.10;99.90;;;;;;6275837;22;19919;-79
2024/03/15 06:14:32;;;;;;;;;;;6.20;99.90;;;;;;6275892;22;19924;-79
2024/03/15 06:17:01;;;;;;;;;;;6.30;99.90;;;;;;6275349;22;19919;-79
2024/03/15 06:19:28;;;;;;;;;;;6.40;99.90;;;;;;6274714;22;20304;-79
2024/03/15 06:21:57;;;;;;;;;;;6.60;99.90;;;;;;6277160;22;19923;-79
2024/03/15 06:24:25;;;;;;;;;;;6.60;99.90;;;;;;6275872;22;19978;-79
2024/03/15 06:26:53;;;;;;;;;;;6.70;99.90;;;;;;6275364;22;19919;-79
2024/03/15 06:29:31;;;;;;;;;;;6.80;99.90;;;;;;6275080;22;20090;-80
2024/03/15 06:32:00;;;;;;;;;;;6.90;99.90;;;;;;6276878;22;19930;-79
2024/03/15 06:34:31;;;;;;;;;;;6.90;99.90;;;;;;6276924;22;20309;-79
2024/03/15 06:36:59;;;;;;;;;;;7.00;99.90;;;;;;6275441;22;19923;-79
2024/03/15 06:42:34;;;;;;;;;;;7.00;99.90;;;;;;6276582;22;19919;-79
2024/03/15 06:45:03;;;;;;;;;;;7.10;99.90;;;;;;6275706;22;19930;-79
2024/03/15 06:47:34;;;;;;;;;;;7.10;99.90;;;;;;6275457;22;19919;-79
2024/03/15 06:52:41;;;;;;;;;;;7.20;99.90;;;;;;6275829;22;19919;-79
2024/03/15 06:55:10;;;;;;;;;;;7.40;99.90;;;;;;6274762;22;19926;-79
2024/03/15 06:57:38;;;;;;;;;;;7.50;99.90;;;;;;6274579;22;20280;-79
2024/03/15 07:00:09;;;;;;;;;;;7.60;99.90;;;;;;6275411;22;20306;-79
2024/03/15 07:02:42;;;;;;;;;;;7.70;99.90;;;;;;6274983;22;19998;-79
2024/03/15 07:05:11;;;;;;;;;;;7.80;99.90;;;;;;6275512;22;20552;-79
2024/03/15 07:07:38;;;;;;;;;;;7.80;99.90;;;;;;6275399;22;19995;-79
2024/03/15 07:10:08;;;;;;;;;;;7.90;99.90;;;;;;6274918;22;19990;-80
2024/03/15 07:12:38;;;;;;;;;;;8.00;99.90;;;;;;6274751;22;19935;-79
2024/03/15 07:15:06;;;;;;;;;;;8.20;99.90;;;;;;6275260;22;19919;-80
2024/03/15 07:17:34;;;;;;;;;;;8.30;99.90;;;;;;6276140;22;19965;-80
2024/03/15 07:20:04;;;;;;;;;;;8.30;99.90;;;;;;6274986;22;19993;-80
2024/03/15 07:22:31;;;;;;;;;;;8.40;99.90;;;;;;6274488;22;20319;-80
2024/03/15 07:24:59;;;;;;;;;;;8.50;99.90;;;;;;6274068;22;19926;-79
2024/03/15 07:27:26;;;;;;;;;;;8.60;99.90;;;;;;6275611;22;19923;-80
2024/03/15 07:29:53;;;;;;;;;;;8.70;99.90;;;;;;6274504;22;20025;-80
2024/03/15 07:32:21;;;;;;;;;;;8.80;99.90;;;;;;6275480;22;20286;-80
2024/03/15 07:34:48;;;;;;;;;;;9.00;99.90;;;;;;6275667;22;19919;-79
2024/03/15 07:37:16;;;;;;;;;;;9.20;99.90;;;;;;6275237;22;20296;-80
2024/03/15 07:39:44;;;;;;;;;;;9.40;99.90;;;;;;6274084;22;19980;-80
2024/03/15 07:42:11;;;;;;;;;;;9.60;99.90;;;;;;6275259;22;19920;-79
2024/03/15 07:44:38;;;;;;;;;;;9.80;99.50;;;;;;6274490;22;19919;-80
2024/03/15 07:47:06;;;;;;;;;;;10.10;98.40;;;;;;6274511;22;20039;-80
2024/03/15 07:49:33;;;;;;;;;;;10.20;97.00;;;;;;6274637;22;20005;-80
2024/03/15 07:52:00;;;;;;;;;;;10.40;96.10;;;;;;6275718;22;19923;-80
2024/03/15 07:54:27;;;;;;;;;;;10.50;96.40;;;;;;6274499;22;19937;-80
2024/03/15 07:56:56;;;;;;;;;;;10.60;95.80;;;;;;6274064;22;19923;-80
2024/03/15 07:59:24;;;;;;;;;;;10.80;95.40;;;;;;6274417;22;19981;-80
2024/03/15 08:01:51;;;;;;;;;;;11.00;95.40;;;;;;6275234;22;20221;-80
2024/03/15 08:04:18;;;;;;;;;;;11.20;95.10;;;;;;6274391;22;19923;-80
2024/03/15 08:06:45;;;;;;;;;;;11.30;94.80;;;;;;6275070;22;19931;-80
2024/03/15 08:09:12;;;;;;;;;;;11.40;93.50;;;;;;6274178;22;19931;-80
2024/03/15 08:11:42;;;;;;;;;;;11.60;93.20;;;;;;6274015;22;19927;-80
2024/03/15 08:14:09;;;;;;;;;;;11.70;92.80;;;;;;6274297;22;19943;-80
2024/03/15 08:16:36;;;;;;;;;;;11.90;92.80;;;;;;6274193;22;19923;-80
2024/03/15 08:19:04;;;;;;;;;;;12.10;92.50;;;;;;6274198;22;19920;-80
2024/03/15 08:21:31;;;;;;;;;;;12.30;91.60;;;;;;6275175;22;19958;-80
2024/03/15 08:24:03;;;;;;;;;;;12.50;91.40;;;;;;6273350;22;19951;-81
2024/03/15 08:26:34;;;;;;;;;;;12.60;90.60;;;;;;6274829;22;19930;-80
2024/03/15 08:29:00;;;;;;;;;;;12.80;90.50;;;;;;6273947;22;19923;-81
2024/03/15 08:31:27;;;;;;;;;;;13.00;88.10;;;;;;6273495;22;19984;-81
2024/03/15 08:33:54;;;;;;;;;;;13.20;87.70;;;;;;6273873;22;19919;-81
2024/03/15 08:36:23;;;;;;;;;;;13.50;86.80;;;;;;6274208;22;19973;-80
2024/03/15 08:38:51;;;;;;;;;;;13.90;86.90;;;;;;6274533;22;20308;-81
2024/03/15 08:41:18;;;;;;;;;;;15.10;83.10;;;;;;6274064;22;19986;-81
2024/03/15 08:43:45;;;;;;;;;;;16.80;77.70;;;;;;6273561;22;19977;-80
2024/03/15 08:46:12;;;;;;;;;;;18.40;71.00;;;;;;6273328;22;19924;-81
2024/03/15 08:48:41;;;;;;;;;;;19.80;65.30;;;;;;6273834;22;19928;-81
2024/03/15 08:51:09;;;;;;;;;;;21.10;60.30;;;;;;6273558;22;19923;-81
2024/03/15 08:53:39;;;;;;;;;;;21.90;56.80;;;;;;6273588;22;19930;-81
2024/03/15 08:56:05;;;;;;;;;;;22.60;54.60;;;;;;6274197;22;19922;-81
2024/03/15 08:58:35;;;;;;;;;;;23.20;52.50;;;;;;6273704;22;19933;-81
2024/03/15 09:01:05;;;;;;;;;;;23.50;50.90;;;;;;6273063;22;19931;-81
2024/03/15 09:03:35;;;;;;;;;;;23.90;49.30;;;;;;6273567;22;19923;-81
2024/03/15 09:06:09;;;;;;;;;;;23.70;48.90;;;;;;6273543;22;19958;-82
2024/03/15 09:08:36;;;;;;;;;;;23.60;48.60;;;;;;6273618;22;19923;-81
2024/03/15 09:11:06;;;;;;;;;;;23.50;48.40;;;;;;6273119;22;20317;-82
2024/03/15 09:13:33;;;;;;;;;;;23.50;47.90;;;;;;6274284;22;19932;-81
2024/03/15 09:16:05;;;;;;;;;;;23.50;48.60;;;;;;6273979;22;20275;-82
2024/03/15 09:18:33;;;;;;;;;;;23.50;47.60;;;;;;6274451;22;20304;-81
2024/03/15 09:21:00;;;;;;;;;;;23.40;49.10;;;;;;6273439;22;19919;-81
2024/03/15 09:23:28;;;;;;;;;;;23.60;48.90;;;;;;6273776;22;19977;-81
2024/03/15 09:25:55;;;;;;;;;;;23.80;47.80;;;;;;6273101;22;19955;-81
2024/03/15 09:28:23;;;;;;;;;;;24.10;47.40;;;;;;6275076;22;19982;-82
2024/03/15 09:30:53;;;;;;;;;;;24.40;47.10;;;;;;6273051;22;19973;-82
2024/03/15 09:33:36;;;;;;;;;;;24.60;47.00;;;;;;6273660;22;20228;-82
2024/03/15 09:36:06;;;;;;;;;;;25.10;46.90;;;;;;6274397;22;19930;-82
2024/03/15 09:38:33;;;;;;;;;;;26.10;45.90;;;;;;6275457;22;19919;-82
2024/03/15 09:41:05;;;;;;;;;;;27.30;44.50;;;;;;6275671;22;19930;-82
2024/03/15 09:43:33;;;;;;;;;;;28.40;42.20;;;;;;6275173;22;19919;-82
2024/03/15 09:46:01;;;;;;;;;;;29.60;40.00;;;;;;6275197;22;19950;-82
2024/03/15 09:48:33;;;;;;;;;;;30.70;37.40;;;;;;6275498;22;20002;-82
2024/03/15 09:51:03;;;;;;;;;;;31.60;35.30;;;;;;6275609;22;19923;-82
2024/03/15 09:53:31;;;;;;;;;;;31.90;33.70;;;;;;6276146;22;19919;-82
2024/03/15 09:55:58;;;;;;;;;;;32.10;33.70;;;;;;6275171;22;19923;-82
2024/03/15 09:58:25;;;;;;;;;;;31.90;33.80;;;;;;6276365;22;19923;-82
2024/03/15 10:00:52;;;;;;;;;;;32.00;34.30;;;;;;6275069;22;20239;-82
2024/03/15 10:03:18;;;;;;;;;;;32.20;33.00;;;;;;6275382;22;19985;-82
2024/03/15 10:05:46;;;;;;;;;;;32.50;32.20;;;;;;6274890;22;20231;-82
2024/03/15 10:08:15;;;;;;;;;;;32.80;32.70;;;;;;6275736;22;20240;-81
2024/03/15 10:10:42;;;;;;;;;;;32.60;33.00;;;;;;6275823;22;19919;-82
2024/03/15 10:13:11;;;;;;;;;;;32.70;32.50;;;;;;6276841;22;20324;-82
2024/03/15 10:15:42;;;;;;;;;;;32.90;32.40;;;;;;6276398;22;19955;-83
2024/03/15 10:18:10;;;;;;;;;;;33.70;32.20;;;;;;6276447;22;19923;-83
2024/03/15 10:20:39;;;;;;;;;;;34.30;31.30;;;;;;6275880;22;19938;-83
2024/03/15 10:23:09;;;;;;;;;;;35.80;29.70;;;;;;6275864;22;19927;-83
2024/03/15 10:25:36;;;;;;;;;;;37.10;29.10;;;;;;6276742;22;19930;-83
2024/03/15 10:28:03;;;;;;;;;;;37.60;27.30;;;;;;6275365;22;19919;-83
2024/03/15 10:30:31;;;;;;;;;;;37.20;26.60;;;;;;6276600;22;20002;-83
2024/03/15 10:32:59;;;;;;;;;;;36.30;27.00;;;;;;6276801;22;19923;-83
2024/03/15 10:35:27;;;;;;;;;;;35.90;28.20;;;;;;6276834;22;19929;-83
2024/03/15 10:37:55;;;;;;;;;;;35.70;28.60;;;;;;6275029;22;19923;-83
2024/03/15 10:40:25;;;;;;;;;;;35.10;29.00;;;;;;6275074;22;19923;-83
2024/03/15 10:42:53;;;;;;;;;;;35.60;28.60;;;;;;6276341;22;19980;-82
2024/03/15 10:45:20;;;;;;;;;;;35.90;28.10;;;;;;6274824;22;19919;-83
2024/03/15 10:47:47;;;;;;;;;;;35.80;28.00;;;;;;6275523;22;20363;-83
2024/03/15 10:50:16;;;;;;;;;;;35.80;28.40;;;;;;6276066;22;19919;-83
2024/03/15 10:52:47;;;;;;;;;;;35.70;28.50;;;;;;6276146;22;19926;-83
2024/03/15 10:55:18;;;;;;;;;;;35.90;28.90;;;;;;6275559;22;20232;-84
2024/03/15 10:57:47;;;;;;;;;;;36.80;28.30;;;;;;6275125;22;19973;-83
2024/03/15 11:00:17;;;;;;;;;;;37.60;27.40;;;;;;6275947;22;19930;-81
2024/03/15 11:02:45;;;;;;;;;;;38.40;27.00;;;;;;6275573;22;19923;-84
2024/03/15 11:05:14;;;;;;;;;;;39.60;26.00;;;;;;6275740;22;19923;-83
2024/03/15 11:07:40;;;;;;;;;;;40.60;25.40;;;;;;6275716;22;19973;-83
2024/03/15 11:10:09;;;;;;;;;;;41.60;24.60;;;;;;6275499;22;20356;-83
2024/03/15 11:12:36;;;;;;;;;;;42.50;23.60;;;;;;6274861;22;19933;-83
2024/03/15 11:15:17;;;;;;;;;;;42.60;23.20;;;;;;6274952;22;20342;-82
2024/03/15 11:17:47;;;;;;;;;;;43.10;22.90;;;;;;6274941;22;19923;-84
2024/03/15 11:20:14;;;;;;;;;;;43.50;21.60;;;;;;6275540;22;19969;-84
2024/03/15 11:22:40;;;;;;;;;;;43.80;21.60;;;;;;6274575;22;20003;-84
2024/03/15 11:25:15;;;;;;;;;;;44.00;21.40;;;;;;6275025;22;20293;-83
2024/03/15 11:27:53;;;;;;;;;;;43.50;21.50;;;;;;6274120;22;19981;-83
2024/03/15 11:30:20;;;;;;;;;;;43.10;21.70;;;;;;6274007;22;19927;-83
2024/03/15 11:32:47;;;;;;;;;;;42.40;22.50;;;;;;6274312;22;19930;-82
2024/03/15 11:35:14;;;;;;;;;;;42.80;22.40;;;;;;6275226;22;19942;-85
2024/03/15 11:37:43;;;;;;;;;;;42.40;23.20;;;;;;6274431;22;20236;-83
2024/03/15 11:40:10;;;;;;;;;;;42.60;23.00;;;;;;6274968;22;19934;-84
2024/03/15 11:42:37;;;;;;;;;;;43.50;22.40;;;;;;6275026;22;19926;-83
2024/03/15 11:45:04;;;;;;;;;;;44.30;22.10;;;;;;6275190;22;19969;-83
2024/03/15 11:47:34;;;;;;;;;;;44.70;21.80;;;;;;6274296;22;20303;-83
2024/03/15 11:50:12;;;;;;;;;;;44.90;21.10;;;;;;6275106;22;19954;-84
2024/03/15 11:52:39;;;;;;;;;;;45.30;20.70;;;;;;6275810;22;19966;-83
2024/03/15 11:55:08;;;;;;;;;;;45.70;20.30;;;;;;6276314;22;19920;-83
2024/03/15 11:57:36;;;;;;;;;;;45.60;20.50;;;;;;6273923;22;20018;-84
2024/03/15 12:00:06;;;;;;;;;;;46.10;19.60;;;;;;6274135;22;19930;-83
2024/03/15 12:02:33;;;;;;;;;;;46.60;20.10;;;;;;6274431;22;19919;-83
2024/03/15 12:05:00;;;;;;;;;;;46.70;19.10;;;;;;6274975;22;20209;-83
2024/03/15 12:07:27;;;;;;;;;;;46.70;19.20;;;;;;6273926;22;19919;-83
2024/03/15 12:09:59;;;;;;;;;;;46.70;18.90;;;;;;6273318;22;20089;-84
2024/03/15 12:12:26;;;;;;;;;;;46.70;18.60;;;;;;6275338;22;20163;-83
2024/03/15 12:14:54;;;;;;;;;;;47.00;18.40;;;;;;6275660;22;20288;-82
2024/03/15 12:17:22;;;;;;;;;;;47.00;18.60;;;;;;6274148;22;19923;-84
2024/03/15 12:19:53;;;;;;;;;;;46.40;18.50;;;;;;6274119;22;19985;-83
2024/03/15 12:22:20;;;;;;;;;;;45.90;18.20;;;;;;6273914;22;19934;-83
2024/03/15 12:24:47;;;;;;;;;;;45.30;18.70;;;;;;6273753;22;19927;-84
2024/03/15 12:27:14;;;;;;;;;;;45.00;19.30;;;;;;6273161;22;19919;-83
2024/03/15 12:29:41;;;;;;;;;;;45.50;19.00;;;;;;6273954;22;19952;-83
2024/03/15 12:32:08;;;;;;;;;;;46.20;18.30;;;;;;6275319;22;19920;-81
2024/03/15 12:34:34;;;;;;;;;;;46.40;18.40;;;;;;6274821;22;19927;-80
2024/03/15 12:37:01;;;;;;;;;;;46.40;17.80;;;;;;6274319;22;20279;-83
2024/03/15 12:39:28;;;;;;;;;;;46.70;18.20;;;;;;6274147;22;19919;-84
2024/03/15 12:41:57;;;;;;;;;;;46.40;18.30;;;;;;6275151;22;19923;-83
2024/03/15 12:44:24;;;;;;;;;;;46.60;18.10;;;;;;6275538;22;19930;-83
2024/03/15 12:46:51;;;;;;;;;;;46.80;18.10;;;;;;6274604;22;19919;-81
2024/03/15 12:49:20;;;;;;;;;;;46.60;17.70;;;;;;6274670;22;20288;-81
2024/03/15 12:51:47;;;;;;;;;;;46.20;18.30;;;;;;6274527;22;19919;-81
2024/03/15 12:54:16;;;;;;;;;;;46.30;18.00;;;;;;6273686;22;19931;-81
2024/03/15 12:56:43;;;;;;;;;;;43.80;18.50;;;;;;6274280;22;19919;-82
2024/03/15 12:59:10;;;;;;;;;;;36.70;25.20;;;;;;6274667;22;19931;-82
2024/03/15 13:01:37;;;;;;;;;;;34.30;28.30;;;;;;6274602;22;19970;-83
2024/03/15 13:04:04;;;;;;;;;;;34.00;29.10;;;;;;6274155;22;19919;-82
2024/03/15 13:06:30;;;;;;;;;;;33.70;29.60;;;;;;6274378;22;20001;-83
2024/03/15 13:08:59;;;;;;;;;;;33.70;29.80;;;;;;6274406;22;20340;-83
2024/03/15 13:11:28;;;;;;;;;;;33.90;29.50;;;;;;6276831;22;19923;-82
2024/03/15 13:13:56;;;;;;;;;;;33.80;29.70;;;;;;6278558;22;19919;-81
2024/03/15 13:16:22;;;;;;;;;;;33.80;29.70;;;;;;6277970;22;19930;-83
2024/03/15 13:18:49;;;;;;;;;;;34.00;29.40;;;;;;6277023;22;19919;-82
2024/03/15 13:21:16;;;;;;;;;;;33.70;29.70;;;;;;6276654;22;20316;-82
2024/03/15 13:23:43;;;;;;;;;;;33.60;29.80;;;;;;6276722;22;19919;-80
2024/03/15 13:26:13;;;;;;;;;;;33.50;30.40;;;;;;6276645;22;20353;-81
2024/03/15 13:28:43;;;;;;;;;;;33.40;30.30;;;;;;6277775;22;19934;-80
2024/03/15 13:31:12;;;;;;;;;;;33.30;29.40;;;;;;6277036;22;19962;-80
2024/03/15 13:33:39;;;;;;;;;;;32.90;30.70;;;;;;6278440;22;20287;-80
2024/03/15 13:36:08;;;;;;;;;;;32.60;31.10;;;;;;6276569;22;19981;-80
2024/03/15 13:38:39;;;;;;;;;;;31.90;30.30;;;;;;6276231;22;19923;-80
2024/03/15 13:41:11;;;;;;;;;;;31.50;31.90;;;;;;6276992;22;20373;-79
2024/03/15 14:20:59;;;;;;;12.85;4.35;;;;;;;;;;5101505;27;20466;-53
2024/03/15 14:23:27;;;;;;;10.13;4.47;;;;;;;;;;5084848;27;20055;-55
2024/03/15 14:25:55;;;;;;;13.70;4.82;;;;;;;;;;5083927;27;20072;-52
2024/03/15 14:28:23;;;;;;;8.80;5.05;;;;;;;;;;5069157;28;20052;-53
2024/03/15 14:30:52;;;;;;;14.38;4.35;;;;;;;;;;5063500;28;20059;-52
2024/03/15 14:33:24;;;;;;;14.48;5.05;;;;;;;;;;5063173;28;20045;-65
2024/03/15 14:35:54;;;;;;;11.57;4.53;;;22.10;55.70;;;;;;5054887;28;65179;-75
2024/03/15 14:38:25;;;;;;;9.18;4.53;;;25.60;47.40;;;;;;5087795;28;20803;-74
2024/03/15 14:40:52;;;;;;;10.30;4.85;;;24.50;48.00;;;;;;5074891;28;20058;-73
2024/03/15 14:43:24;;;;;;;12.32;5.65;;;23.60;50.10;;;;;;5072356;28;20094;-75
2024/03/15 14:45:51;;;;;;;12.90;4.85;;;23.00;50.80;;;;;;5071027;28;20052;-71
2024/03/15 14:48:19;;;;;;;11.63;5.00;;;22.70;52.20;;;;;;5072947;28;20132;-73
2024/03/15 14:50:50;;;;;;;14.43;4.72;;;22.50;52.70;;;;;;5081701;28;20051;-65
2024/03/15 22:16:57;;;;;;;11.52;2.58;;;22.50;57.70;;;;;;5090559;27;20376;-62
2024/03/15 22:19:27;;;;;;;12.23;2.72;;;23.00;54.70;;;;;;5058771;28;20380;-63
2024/03/15 22:21:56;;;;;;;7.30;2.20;;;22.90;54.10;;;;;;5064873;28;20044;-62
2024/03/15 22:24:23;;;;;;;6.43;2.30;;;22.80;54.10;;;;;;5059126;28;20045;-61
2024/03/15 22:26:50;;;;;;;8.40;2.45;;;22.70;54.20;;;;;;5059341;28;20045;-61
2024/03/15 22:29:19;;;;;;;5.40;2.35;;;22.70;54.40;;;;;;5058523;28;20053;-62
2024/03/15 22:31:48;;;;;;;9.25;2.33;;;22.70;54.30;;;;;;5055132;28;20076;-61